sensor_id;sensor_type;location;lat;lon;timestamp;P1;durP1;ratioP1;P2;durP2;ratioP2
36801;SDS011;22753;42.604;23.366;2024-03-02T00:02:18;32.75;;;19.52;;
36801;SDS011;22753;42.604;23.366;2024-03-02T00:04:44;37.53;;;20.80;;
36801;SDS011;22753;42.604;23.366;2024-03-02T00:07:10;34.05;;;19.52;;
36801;SDS011;22753;42.604;23.366;2024-03-02T00:09:39;36.67;;;21.45;;
36801;SDS011;22753;42.604;23.366;2024-03-02T00:12:04;35.58;;;19.90;;
36801;SDS011;22753;42.604;23.366;2024-03-02T00:14:30;36.67;;;19.98;;
36801;SDS011;22753;42.604;23.366;2024-03-02T00:16:55;33.78;;;20.90;;
36801;SDS011;22753;42.604;23.366;2024-03-02T00:19:21;35.10;;;19.75;;
36801;SDS011;22753;42.604;23.366;2024-03-02T00:21:47;33.55;;;19.58;;
36801;SDS011;22753;42.604;23.366;2024-03-02T00:24:20;33.70;;;19.67;;
36801;SDS011;22753;42.604;23.366;2024-03-02T00:26:47;36.00;;;18.90;;
36801;SDS011;22753;42.604;23.366;2024-03-02T00:29:13;33.22;;;19.23;;
36801;SDS011;22753;42.604;23.366;2024-03-02T00:31:41;34.15;;;19.77;;
36801;SDS011;22753;42.604;23.366;2024-03-02T00:34:06;36.75;;;20.13;;
36801;SDS011;22753;42.604;23.366;2024-03-02T00:36:32;35.38;;;19.83;;
36801;SDS011;22753;42.604;23.366;2024-03-02T00:38:57;35.22;;;19.58;;
36801;SDS011;22753;42.604;23.366;2024-03-02T00:41:30;35.63;;;20.10;;
36801;SDS011;22753;42.604;23.366;2024-03-02T00:44:00;32.30;;;19.85;;
36801;SDS011;22753;42.604;23.366;2024-03-02T00:46:26;35.08;;;19.58;;
36801;SDS011;22753;42.604;23.366;2024-03-02T00:48:59;33.22;;;20.00;;
36801;SDS011;22753;42.604;23.366;2024-03-02T00:51:34;33.28;;;19.23;;
36801;SDS011;22753;42.604;23.366;2024-03-02T00:54:01;34.00;;;18.73;;
36801;SDS011;22753;42.604;23.366;2024-03-02T00:56:29;30.58;;;17.08;;
36801;SDS011;22753;42.604;23.366;2024-03-02T00:58:55;30.05;;;15.63;;
36801;SDS011;22753;42.604;23.366;2024-03-02T01:01:20;27.77;;;16.30;;
36801;SDS011;22753;42.604;23.366;2024-03-02T01:03:46;29.80;;;14.63;;
36801;SDS011;22753;42.604;23.366;2024-03-02T01:06:11;26.05;;;14.50;;
36801;SDS011;22753;42.604;23.366;2024-03-02T01:08:37;29.25;;;14.68;;
36801;SDS011;22753;42.604;23.366;2024-03-02T01:11:03;24.33;;;13.25;;
36801;SDS011;22753;42.604;23.366;2024-03-02T01:13:30;24.45;;;13.98;;
36801;SDS011;22753;42.604;23.366;2024-03-02T01:15:56;21.85;;;12.88;;
36801;SDS011;22753;42.604;23.366;2024-03-02T01:18:21;23.88;;;13.30;;
36801;SDS011;22753;42.604;23.366;2024-03-02T01:20:47;24.48;;;12.35;;
36801;SDS011;22753;42.604;23.366;2024-03-02T01:23:16;23.63;;;12.57;;
36801;SDS011;22753;42.604;23.366;2024-03-02T01:25:42;22.52;;;12.30;;
36801;SDS011;22753;42.604;23.366;2024-03-02T01:28:07;23.27;;;13.38;;
36801;SDS011;22753;42.604;23.366;2024-03-02T01:30:33;21.60;;;13.13;;
36801;SDS011;22753;42.604;23.366;2024-03-02T01:32:58;24.42;;;14.70;;
36801;SDS011;22753;42.604;23.366;2024-03-02T01:35:25;24.60;;;14.23;;
36801;SDS011;22753;42.604;23.366;2024-03-02T01:37:51;25.63;;;14.20;;
36801;SDS011;22753;42.604;23.366;2024-03-02T01:40:17;27.48;;;14.63;;
36801;SDS011;22753;42.604;23.366;2024-03-02T01:42:42;22.08;;;13.60;;
36801;SDS011;22753;42.604;23.366;2024-03-02T01:45:08;24.95;;;14.57;;
36801;SDS011;22753;42.604;23.366;2024-03-02T01:47:34;24.48;;;14.32;;
36801;SDS011;22753;42.604;23.366;2024-03-02T01:50:00;28.13;;;16.45;;
36801;SDS011;22753;42.604;23.366;2024-03-02T01:52:26;31.83;;;16.48;;
36801;SDS011;22753;42.604;23.366;2024-03-02T01:54:52;27.50;;;15.88;;
36801;SDS011;22753;42.604;23.366;2024-03-02T01:57:17;29.25;;;15.73;;
36801;SDS011;22753;42.604;23.366;2024-03-02T01:59:43;25.08;;;15.10;;
36801;SDS011;22753;42.604;23.366;2024-03-02T02:02:09;30.08;;;16.85;;
36801;SDS011;22753;42.604;23.366;2024-03-02T02:04:34;27.42;;;16.77;;
36801;SDS011;22753;42.604;23.366;2024-03-02T02:07:00;30.13;;;17.10;;
36801;SDS011;22753;42.604;23.366;2024-03-02T02:09:25;31.08;;;17.77;;
36801;SDS011;22753;42.604;23.366;2024-03-02T02:11:51;31.08;;;17.83;;
36801;SDS011;22753;42.604;23.366;2024-03-02T02:14:16;32.28;;;18.13;;
36801;SDS011;22753;42.604;23.366;2024-03-02T02:16:42;30.02;;;17.63;;
36801;SDS011;22753;42.604;23.366;2024-03-02T02:19:08;32.92;;;17.63;;
36801;SDS011;22753;42.604;23.366;2024-03-02T02:21:34;30.52;;;18.02;;
36801;SDS011;22753;42.604;23.366;2024-03-02T02:23:59;32.90;;;18.02;;
36801;SDS011;22753;42.604;23.366;2024-03-02T02:26:26;30.60;;;17.95;;
36801;SDS011;22753;42.604;23.366;2024-03-02T02:28:51;32.97;;;18.42;;
36801;SDS011;22753;42.604;23.366;2024-03-02T02:31:17;30.05;;;17.77;;
36801;SDS011;22753;42.604;23.366;2024-03-02T02:33:42;29.48;;;17.70;;
36801;SDS011;22753;42.604;23.366;2024-03-02T02:36:08;27.85;;;15.13;;
36801;SDS011;22753;42.604;23.366;2024-03-02T02:38:36;23.60;;;14.07;;
36801;SDS011;22753;42.604;23.366;2024-03-02T02:41:03;21.92;;;13.35;;
36801;SDS011;22753;42.604;23.366;2024-03-02T02:43:28;20.13;;;12.50;;
36801;SDS011;22753;42.604;23.366;2024-03-02T02:45:54;26.27;;;14.20;;
36801;SDS011;22753;42.604;23.366;2024-03-02T02:48:19;21.40;;;12.90;;
36801;SDS011;22753;42.604;23.366;2024-03-02T02:50:45;19.50;;;12.25;;
36801;SDS011;22753;42.604;23.366;2024-03-02T02:53:10;21.92;;;12.73;;
36801;SDS011;22753;42.604;23.366;2024-03-02T02:55:35;21.08;;;12.07;;
36801;SDS011;22753;42.604;23.366;2024-03-02T02:58:05;21.63;;;11.85;;
36801;SDS011;22753;42.604;23.366;2024-03-02T03:00:32;21.35;;;11.75;;
36801;SDS011;22753;42.604;23.366;2024-03-02T03:02:58;19.92;;;11.68;;
36801;SDS011;22753;42.604;23.366;2024-03-02T03:05:23;24.05;;;11.88;;
36801;SDS011;22753;42.604;23.366;2024-03-02T03:07:48;18.95;;;11.27;;
36801;SDS011;22753;42.604;23.366;2024-03-02T03:10:15;18.60;;;10.93;;
36801;SDS011;22753;42.604;23.366;2024-03-02T03:12:41;18.52;;;11.10;;
36801;SDS011;22753;42.604;23.366;2024-03-02T03:15:08;21.67;;;11.60;;
36801;SDS011;22753;42.604;23.366;2024-03-02T03:17:34;19.10;;;10.75;;
36801;SDS011;22753;42.604;23.366;2024-03-02T03:20:00;18.25;;;11.35;;
36801;SDS011;22753;42.604;23.366;2024-03-02T03:22:26;21.92;;;12.20;;
36801;SDS011;22753;42.604;23.366;2024-03-02T03:24:52;19.45;;;11.13;;
36801;SDS011;22753;42.604;23.366;2024-03-02T03:27:17;20.88;;;11.90;;
36801;SDS011;22753;42.604;23.366;2024-03-02T03:29:44;19.95;;;11.85;;
36801;SDS011;22753;42.604;23.366;2024-03-02T03:32:10;23.10;;;13.00;;
36801;SDS011;22753;42.604;23.366;2024-03-02T03:34:35;21.20;;;12.25;;
36801;SDS011;22753;42.604;23.366;2024-03-02T03:37:01;19.92;;;11.63;;
36801;SDS011;22753;42.604;23.366;2024-03-02T03:39:26;20.85;;;12.57;;
36801;SDS011;22753;42.604;23.366;2024-03-02T03:41:52;20.73;;;11.90;;
36801;SDS011;22753;42.604;23.366;2024-03-02T03:44:17;20.80;;;12.38;;
36801;SDS011;22753;42.604;23.366;2024-03-02T03:46:43;22.80;;;12.80;;
36801;SDS011;22753;42.604;23.366;2024-03-02T03:49:08;23.00;;;13.73;;
36801;SDS011;22753;42.604;23.366;2024-03-02T03:51:33;25.65;;;14.15;;
36801;SDS011;22753;42.604;23.366;2024-03-02T03:53:59;26.70;;;15.02;;
36801;SDS011;22753;42.604;23.366;2024-03-02T03:56:24;27.83;;;15.68;;
36801;SDS011;22753;42.604;23.366;2024-03-02T03:58:50;27.70;;;16.10;;
36801;SDS011;22753;42.604;23.366;2024-03-02T04:01:15;29.17;;;16.85;;
36801;SDS011;22753;42.604;23.366;2024-03-02T04:03:41;30.70;;;16.83;;
36801;SDS011;22753;42.604;23.366;2024-03-02T04:06:06;30.83;;;16.80;;
36801;SDS011;22753;42.604;23.366;2024-03-02T04:08:31;35.88;;;18.38;;
36801;SDS011;22753;42.604;23.366;2024-03-02T04:10:57;32.05;;;17.90;;
36801;SDS011;22753;42.604;23.366;2024-03-02T04:13:22;31.23;;;18.20;;
36801;SDS011;22753;42.604;23.366;2024-03-02T04:15:47;38.38;;;22.00;;
36801;SDS011;22753;42.604;23.366;2024-03-02T04:18:13;38.03;;;21.40;;
36801;SDS011;22753;42.604;23.366;2024-03-02T04:20:38;38.03;;;22.45;;
36801;SDS011;22753;42.604;23.366;2024-03-02T04:23:03;38.38;;;21.00;;
36801;SDS011;22753;42.604;23.366;2024-03-02T04:25:29;38.03;;;21.77;;
36801;SDS011;22753;42.604;23.366;2024-03-02T04:27:54;36.85;;;20.58;;
36801;SDS011;22753;42.604;23.366;2024-03-02T04:30:20;35.83;;;20.63;;
36801;SDS011;22753;42.604;23.366;2024-03-02T04:32:45;35.83;;;19.63;;
36801;SDS011;22753;42.604;23.366;2024-03-02T04:35:11;31.80;;;18.65;;
36801;SDS011;22753;42.604;23.366;2024-03-02T04:37:40;33.33;;;19.05;;
36801;SDS011;22753;42.604;23.366;2024-03-02T04:40:05;33.55;;;17.70;;
36801;SDS011;22753;42.604;23.366;2024-03-02T04:42:34;30.73;;;17.33;;
36801;SDS011;22753;42.604;23.366;2024-03-02T04:45:00;35.83;;;17.80;;
36801;SDS011;22753;42.604;23.366;2024-03-02T04:47:26;30.10;;;15.93;;
36801;SDS011;22753;42.604;23.366;2024-03-02T04:49:51;27.25;;;15.98;;
36801;SDS011;22753;42.604;23.366;2024-03-02T04:52:17;30.02;;;16.15;;
36801;SDS011;22753;42.604;23.366;2024-03-02T04:54:42;26.33;;;14.80;;
36801;SDS011;22753;42.604;23.366;2024-03-02T04:57:43;25.52;;;13.55;;
36801;SDS011;22753;42.604;23.366;2024-03-02T05:00:09;24.27;;;14.38;;
36801;SDS011;22753;42.604;23.366;2024-03-02T05:02:35;22.42;;;13.25;;
36801;SDS011;22753;42.604;23.366;2024-03-02T05:05:00;24.27;;;13.68;;
36801;SDS011;22753;42.604;23.366;2024-03-02T05:07:26;25.05;;;13.57;;
36801;SDS011;22753;42.604;23.366;2024-03-02T05:09:51;25.23;;;13.90;;
36801;SDS011;22753;42.604;23.366;2024-03-02T05:12:17;28.00;;;14.52;;
36801;SDS011;22753;42.604;23.366;2024-03-02T05:15:00;23.67;;;13.00;;
36801;SDS011;22753;42.604;23.366;2024-03-02T05:17:26;27.08;;;14.63;;
36801;SDS011;22753;42.604;23.366;2024-03-02T05:19:52;27.40;;;14.70;;
36801;SDS011;22753;42.604;23.366;2024-03-02T05:22:17;25.38;;;15.10;;
36801;SDS011;22753;42.604;23.366;2024-03-02T05:24:43;27.85;;;14.65;;
36801;SDS011;22753;42.604;23.366;2024-03-02T05:27:08;24.90;;;15.23;;
36801;SDS011;22753;42.604;23.366;2024-03-02T05:29:33;23.95;;;13.98;;
36801;SDS011;22753;42.604;23.366;2024-03-02T05:31:59;24.00;;;13.82;;
36801;SDS011;22753;42.604;23.366;2024-03-02T05:34:24;27.08;;;14.90;;
36801;SDS011;22753;42.604;23.366;2024-03-02T05:36:50;28.60;;;15.77;;
36801;SDS011;22753;42.604;23.366;2024-03-02T05:39:15;28.65;;;17.08;;
36801;SDS011;22753;42.604;23.366;2024-03-02T05:41:40;29.90;;;17.27;;
36801;SDS011;22753;42.604;23.366;2024-03-02T05:44:06;29.77;;;17.52;;
36801;SDS011;22753;42.604;23.366;2024-03-02T05:46:31;29.80;;;18.25;;
36801;SDS011;22753;42.604;23.366;2024-03-02T05:48:57;28.75;;;17.58;;
36801;SDS011;22753;42.604;23.366;2024-03-02T05:51:23;28.75;;;17.10;;
36801;SDS011;22753;42.604;23.366;2024-03-02T05:53:49;34.75;;;18.13;;
36801;SDS011;22753;42.604;23.366;2024-03-02T05:56:14;33.35;;;18.95;;
36801;SDS011;22753;42.604;23.366;2024-03-02T05:58:40;30.60;;;17.58;;
36801;SDS011;22753;42.604;23.366;2024-03-02T06:01:25;29.73;;;17.17;;
36801;SDS011;22753;42.604;23.366;2024-03-02T06:03:56;30.45;;;17.95;;
36801;SDS011;22753;42.604;23.366;2024-03-02T06:06:22;35.78;;;19.77;;
36801;SDS011;22753;42.604;23.366;2024-03-02T06:08:48;35.25;;;18.35;;
36801;SDS011;22753;42.604;23.366;2024-03-02T06:11:13;33.90;;;19.00;;
36801;SDS011;22753;42.604;23.366;2024-03-02T06:13:38;31.42;;;18.30;;
36801;SDS011;22753;42.604;23.366;2024-03-02T06:16:04;32.63;;;18.00;;
36801;SDS011;22753;42.604;23.366;2024-03-02T06:18:29;31.80;;;18.45;;
36801;SDS011;22753;42.604;23.366;2024-03-02T06:20:55;29.73;;;17.45;;
36801;SDS011;22753;42.604;23.366;2024-03-02T06:23:20;28.35;;;15.88;;
36801;SDS011;22753;42.604;23.366;2024-03-02T06:25:45;29.30;;;16.50;;
36801;SDS011;22753;42.604;23.366;2024-03-02T06:28:11;34.55;;;18.17;;
36801;SDS011;22753;42.604;23.366;2024-03-02T06:30:36;31.92;;;18.77;;
36801;SDS011;22753;42.604;23.366;2024-03-02T06:33:02;30.75;;;18.60;;
36801;SDS011;22753;42.604;23.366;2024-03-02T06:35:28;31.83;;;17.98;;
36801;SDS011;22753;42.604;23.366;2024-03-02T06:37:54;29.13;;;17.98;;
36801;SDS011;22753;42.604;23.366;2024-03-02T06:40:19;30.55;;;17.27;;
36801;SDS011;22753;42.604;23.366;2024-03-02T06:42:45;31.60;;;17.48;;
36801;SDS011;22753;42.604;23.366;2024-03-02T06:45:11;29.20;;;17.83;;
36801;SDS011;22753;42.604;23.366;2024-03-02T06:47:36;32.40;;;18.05;;
36801;SDS011;22753;42.604;23.366;2024-03-02T06:50:01;30.83;;;18.50;;
36801;SDS011;22753;42.604;23.366;2024-03-02T06:52:27;31.88;;;17.73;;
36801;SDS011;22753;42.604;23.366;2024-03-02T06:54:52;33.97;;;17.38;;
36801;SDS011;22753;42.604;23.366;2024-03-02T06:57:18;31.50;;;17.50;;
36801;SDS011;22753;42.604;23.366;2024-03-02T06:59:44;30.30;;;17.73;;
36801;SDS011;22753;42.604;23.366;2024-03-02T07:02:10;32.58;;;18.08;;
36801;SDS011;22753;42.604;23.366;2024-03-02T07:04:35;28.92;;;17.05;;
36801;SDS011;22753;42.604;23.366;2024-03-02T07:07:00;27.05;;;15.82;;
36801;SDS011;22753;42.604;23.366;2024-03-02T07:09:26;26.95;;;15.50;;
36801;SDS011;22753;42.604;23.366;2024-03-02T07:11:51;24.60;;;14.52;;
36801;SDS011;22753;42.604;23.366;2024-03-02T07:14:17;26.38;;;14.60;;
36801;SDS011;22753;42.604;23.366;2024-03-02T07:16:42;26.30;;;15.43;;
36801;SDS011;22753;42.604;23.366;2024-03-02T07:19:08;25.30;;;14.82;;
36801;SDS011;22753;42.604;23.366;2024-03-02T07:21:34;24.73;;;15.13;;
36801;SDS011;22753;42.604;23.366;2024-03-02T07:23:59;26.85;;;15.27;;
36801;SDS011;22753;42.604;23.366;2024-03-02T07:26:27;29.20;;;16.23;;
36801;SDS011;22753;42.604;23.366;2024-03-02T07:28:53;34.70;;;18.38;;
36801;SDS011;22753;42.604;23.366;2024-03-02T07:31:18;37.03;;;20.40;;
36801;SDS011;22753;42.604;23.366;2024-03-02T07:33:44;39.35;;;20.67;;
36801;SDS011;22753;42.604;23.366;2024-03-02T07:36:11;37.03;;;20.92;;
36801;SDS011;22753;42.604;23.366;2024-03-02T07:38:36;36.60;;;20.67;;
36801;SDS011;22753;42.604;23.366;2024-03-02T07:41:02;38.03;;;21.25;;
36801;SDS011;22753;42.604;23.366;2024-03-02T07:43:29;35.25;;;19.88;;
36801;SDS011;22753;42.604;23.366;2024-03-02T07:45:55;32.33;;;18.52;;
36801;SDS011;22753;42.604;23.366;2024-03-02T07:48:21;34.85;;;20.05;;
36801;SDS011;22753;42.604;23.366;2024-03-02T07:50:46;31.60;;;18.65;;
36801;SDS011;22753;42.604;23.366;2024-03-02T07:53:11;32.25;;;18.67;;
36801;SDS011;22753;42.604;23.366;2024-03-02T07:55:37;33.22;;;19.60;;
36801;SDS011;22753;42.604;23.366;2024-03-02T07:58:02;31.98;;;18.90;;
36801;SDS011;22753;42.604;23.366;2024-03-02T08:00:28;31.75;;;18.88;;
36801;SDS011;22753;42.604;23.366;2024-03-02T08:02:53;34.63;;;19.67;;
36801;SDS011;22753;42.604;23.366;2024-03-02T08:05:19;37.97;;;21.17;;
36801;SDS011;22753;42.604;23.366;2024-03-02T08:07:45;35.33;;;20.33;;
36801;SDS011;22753;42.604;23.366;2024-03-02T08:10:11;40.90;;;21.60;;
36801;SDS011;22753;42.604;23.366;2024-03-02T08:12:37;39.45;;;21.20;;
36801;SDS011;22753;42.604;23.366;2024-03-02T08:15:03;46.60;;;24.13;;
36801;SDS011;22753;42.604;23.366;2024-03-02T08:17:29;44.50;;;23.63;;
36801;SDS011;22753;42.604;23.366;2024-03-02T08:19:54;39.83;;;22.42;;
36801;SDS011;22753;42.604;23.366;2024-03-02T08:22:20;47.40;;;24.58;;
36801;SDS011;22753;42.604;23.366;2024-03-02T08:24:45;38.17;;;21.95;;
36801;SDS011;22753;42.604;23.366;2024-03-02T08:27:11;39.67;;;22.52;;
36801;SDS011;22753;42.604;23.366;2024-03-02T08:29:37;39.80;;;23.92;;
36801;SDS011;22753;42.604;23.366;2024-03-02T08:32:02;40.22;;;22.95;;
36801;SDS011;22753;42.604;23.366;2024-03-02T08:34:28;42.00;;;23.00;;
36801;SDS011;22753;42.604;23.366;2024-03-02T08:36:53;36.00;;;21.95;;
36801;SDS011;22753;42.604;23.366;2024-03-02T08:39:19;39.28;;;22.60;;
36801;SDS011;22753;42.604;23.366;2024-03-02T08:41:45;44.70;;;23.60;;
36801;SDS011;22753;42.604;23.366;2024-03-02T08:44:11;38.30;;;22.00;;
36801;SDS011;22753;42.604;23.366;2024-03-02T08:46:38;42.92;;;23.38;;
36801;SDS011;22753;42.604;23.366;2024-03-02T08:49:04;41.30;;;22.85;;
36801;SDS011;22753;42.604;23.366;2024-03-02T08:51:29;43.42;;;24.13;;
36801;SDS011;22753;42.604;23.366;2024-03-02T08:53:55;35.58;;;20.33;;
36801;SDS011;22753;42.604;23.366;2024-03-02T08:56:21;43.40;;;23.20;;
36801;SDS011;22753;42.604;23.366;2024-03-02T08:58:48;39.45;;;21.73;;
36801;SDS011;22753;42.604;23.366;2024-03-02T09:01:14;39.88;;;20.73;;
36801;SDS011;22753;42.604;23.366;2024-03-02T09:03:39;35.80;;;20.00;;
36801;SDS011;22753;42.604;23.366;2024-03-02T09:06:04;41.75;;;23.67;;
36801;SDS011;22753;42.604;23.366;2024-03-02T09:08:30;40.08;;;24.27;;
36801;SDS011;22753;42.604;23.366;2024-03-02T09:10:56;36.30;;;21.95;;
36801;SDS011;22753;42.604;23.366;2024-03-02T09:13:21;36.80;;;20.77;;
36801;SDS011;22753;42.604;23.366;2024-03-02T09:15:47;37.08;;;20.58;;
36801;SDS011;22753;42.604;23.366;2024-03-02T09:18:13;39.58;;;20.88;;
36801;SDS011;22753;42.604;23.366;2024-03-02T09:20:38;35.22;;;20.05;;
36801;SDS011;22753;42.604;23.366;2024-03-02T09:23:03;32.03;;;18.40;;
36801;SDS011;22753;42.604;23.366;2024-03-02T09:25:29;36.55;;;19.48;;
36801;SDS011;22753;42.604;23.366;2024-03-02T09:27:54;31.98;;;17.85;;
36801;SDS011;22753;42.604;23.366;2024-03-02T09:30:20;30.27;;;17.40;;
36801;SDS011;22753;42.604;23.366;2024-03-02T09:32:45;29.92;;;17.38;;
36801;SDS011;22753;42.604;23.366;2024-03-02T09:35:10;32.17;;;16.98;;
36801;SDS011;22753;42.604;23.366;2024-03-02T09:37:37;28.90;;;15.68;;
36801;SDS011;22753;42.604;23.366;2024-03-02T09:40:02;28.95;;;16.13;;
36801;SDS011;22753;42.604;23.366;2024-03-02T09:42:28;30.10;;;16.90;;
36801;SDS011;22753;42.604;23.366;2024-03-02T09:44:54;31.05;;;16.60;;
36801;SDS011;22753;42.604;23.366;2024-03-02T09:47:20;27.45;;;15.68;;
36801;SDS011;22753;42.604;23.366;2024-03-02T09:49:45;27.27;;;15.93;;
36801;SDS011;22753;42.604;23.366;2024-03-02T09:52:11;28.33;;;16.65;;
36801;SDS011;22753;42.604;23.366;2024-03-02T09:54:36;29.70;;;16.45;;
36801;SDS011;22753;42.604;23.366;2024-03-02T09:57:04;31.08;;;17.25;;
36801;SDS011;22753;42.604;23.366;2024-03-02T09:59:29;30.85;;;17.20;;
36801;SDS011;22753;42.604;23.366;2024-03-02T10:01:58;38.70;;;20.63;;
36801;SDS011;22753;42.604;23.366;2024-03-02T10:04:28;38.08;;;21.23;;
36801;SDS011;22753;42.604;23.366;2024-03-02T10:07:12;39.22;;;22.27;;
36801;SDS011;22753;42.604;23.366;2024-03-02T10:09:39;37.50;;;19.85;;
36801;SDS011;22753;42.604;23.366;2024-03-02T10:12:05;36.80;;;20.67;;
36801;SDS011;22753;42.604;23.366;2024-03-02T10:14:32;44.58;;;22.63;;
36801;SDS011;22753;42.604;23.366;2024-03-02T10:17:04;43.05;;;23.35;;
36801;SDS011;22753;42.604;23.366;2024-03-02T10:19:31;44.88;;;24.48;;
36801;SDS011;22753;42.604;23.366;2024-03-02T10:21:58;49.92;;;27.20;;
36801;SDS011;22753;42.604;23.366;2024-03-02T10:24:24;50.15;;;26.25;;
36801;SDS011;22753;42.604;23.366;2024-03-02T10:26:50;48.55;;;26.65;;
36801;SDS011;22753;42.604;23.366;2024-03-02T10:29:16;46.17;;;26.08;;
36801;SDS011;22753;42.604;23.366;2024-03-02T10:31:43;47.92;;;24.95;;
36801;SDS011;22753;42.604;23.366;2024-03-02T10:34:10;45.95;;;24.85;;
36801;SDS011;22753;42.604;23.366;2024-03-02T10:36:37;47.45;;;24.85;;
36801;SDS011;22753;42.604;23.366;2024-03-02T10:39:03;49.17;;;24.63;;
36801;SDS011;22753;42.604;23.366;2024-03-02T10:41:33;45.22;;;24.77;;
36801;SDS011;22753;42.604;23.366;2024-03-02T10:44:01;47.45;;;24.77;;
36801;SDS011;22753;42.604;23.366;2024-03-02T10:46:28;47.75;;;24.27;;
36801;SDS011;22753;42.604;23.366;2024-03-02T10:48:58;45.53;;;24.25;;
36801;SDS011;22753;42.604;23.366;2024-03-02T10:51:25;44.92;;;24.90;;
36801;SDS011;22753;42.604;23.366;2024-03-02T10:53:52;44.42;;;24.63;;
36801;SDS011;22753;42.604;23.366;2024-03-02T10:56:23;44.83;;;25.02;;
36801;SDS011;22753;42.604;23.366;2024-03-02T10:59:01;47.00;;;24.52;;
36801;SDS011;22753;42.604;23.366;2024-03-02T11:01:29;43.00;;;23.02;;
36801;SDS011;22753;42.604;23.366;2024-03-02T11:03:55;47.35;;;25.55;;
36801;SDS011;22753;42.604;23.366;2024-03-02T11:06:21;44.60;;;24.00;;
36801;SDS011;22753;42.604;23.366;2024-03-02T11:08:49;43.83;;;23.08;;
36801;SDS011;22753;42.604;23.366;2024-03-02T11:11:15;44.85;;;23.00;;
36801;SDS011;22753;42.604;23.366;2024-03-02T11:13:49;40.20;;;22.48;;
36801;SDS011;22753;42.604;23.366;2024-03-02T11:19:02;38.75;;;21.65;;
36801;SDS011;22753;42.604;23.366;2024-03-02T11:21:29;38.17;;;19.90;;
36801;SDS011;22753;42.604;23.366;2024-03-02T11:23:56;34.70;;;19.27;;
36801;SDS011;22753;42.604;23.366;2024-03-02T11:26:22;37.08;;;20.55;;
36801;SDS011;22753;42.604;23.366;2024-03-02T11:28:49;37.72;;;20.50;;
36801;SDS011;22753;42.604;23.366;2024-03-02T11:31:14;34.28;;;19.50;;
36801;SDS011;22753;42.604;23.366;2024-03-02T11:33:40;35.80;;;19.83;;
36801;SDS011;22753;42.604;23.366;2024-03-02T11:36:08;33.40;;;18.65;;
36801;SDS011;22753;42.604;23.366;2024-03-02T11:38:34;35.42;;;18.42;;
36801;SDS011;22753;42.604;23.366;2024-03-02T11:41:06;33.22;;;18.60;;
36801;SDS011;22753;42.604;23.366;2024-03-02T11:43:38;30.92;;;18.42;;
36801;SDS011;22753;42.604;23.366;2024-03-02T11:46:04;31.98;;;18.33;;
36801;SDS011;22753;42.604;23.366;2024-03-02T11:48:34;33.97;;;19.00;;
36801;SDS011;22753;42.604;23.366;2024-03-02T11:51:02;38.53;;;19.98;;
36801;SDS011;22753;42.604;23.366;2024-03-02T11:53:28;33.63;;;19.60;;
36801;SDS011;22753;42.604;23.366;2024-03-02T11:55:57;34.30;;;18.73;;
36801;SDS011;22753;42.604;23.366;2024-03-02T11:58:23;30.65;;;18.00;;
36801;SDS011;22753;42.604;23.366;2024-03-02T12:00:55;27.55;;;16.80;;
36801;SDS011;22753;42.604;23.366;2024-03-02T12:03:24;31.15;;;16.65;;
36801;SDS011;22753;42.604;23.366;2024-03-02T12:05:50;29.10;;;15.95;;
36801;SDS011;22753;42.604;23.366;2024-03-02T12:08:17;26.73;;;15.57;;
36801;SDS011;22753;42.604;23.366;2024-03-02T12:10:43;29.38;;;16.70;;
36801;SDS011;22753;42.604;23.366;2024-03-02T12:13:09;27.98;;;16.65;;
36801;SDS011;22753;42.604;23.366;2024-03-02T12:15:36;33.20;;;19.27;;
36801;SDS011;22753;42.604;23.366;2024-03-02T12:18:03;29.15;;;17.15;;
36801;SDS011;22753;42.604;23.366;2024-03-02T12:20:29;33.30;;;18.38;;
36801;SDS011;22753;42.604;23.366;2024-03-02T12:22:57;30.10;;;18.13;;
36801;SDS011;22753;42.604;23.366;2024-03-02T12:25:24;31.95;;;16.95;;
36801;SDS011;22753;42.604;23.366;2024-03-02T12:27:56;33.50;;;19.08;;
36801;SDS011;22753;42.604;23.366;2024-03-02T12:30:23;35.55;;;19.58;;
36801;SDS011;22753;42.604;23.366;2024-03-02T12:32:49;38.00;;;19.88;;
36801;SDS011;22753;42.604;23.366;2024-03-02T12:35:17;35.20;;;20.08;;
36801;SDS011;22753;42.604;23.366;2024-03-02T12:37:46;33.47;;;20.02;;
36801;SDS011;22753;42.604;23.366;2024-03-02T12:40:13;30.52;;;18.60;;
36801;SDS011;22753;42.604;23.366;2024-03-02T12:42:40;32.70;;;17.85;;
36801;SDS011;22753;42.604;23.366;2024-03-02T12:45:07;28.33;;;17.85;;
36801;SDS011;22753;42.604;23.366;2024-03-02T12:47:33;28.45;;;17.33;;
36801;SDS011;22753;42.604;23.366;2024-03-02T12:49:59;29.08;;;16.65;;
36801;SDS011;22753;42.604;23.366;2024-03-02T12:52:25;27.95;;;16.17;;
36801;SDS011;22753;42.604;23.366;2024-03-02T12:54:51;25.63;;;15.73;;
36801;SDS011;22753;42.604;23.366;2024-03-02T12:57:18;26.05;;;15.82;;
36801;SDS011;22753;42.604;23.366;2024-03-02T12:59:46;29.15;;;16.17;;
36801;SDS011;22753;42.604;23.366;2024-03-02T13:02:18;32.00;;;19.20;;
36801;SDS011;22753;42.604;23.366;2024-03-02T13:04:53;29.20;;;18.13;;
36801;SDS011;22753;42.604;23.366;2024-03-02T13:07:19;33.78;;;20.05;;
36801;SDS011;22753;42.604;23.366;2024-03-02T13:09:45;30.17;;;18.40;;
36801;SDS011;22753;42.604;23.366;2024-03-02T13:12:11;31.63;;;18.77;;
36801;SDS011;22753;42.604;23.366;2024-03-02T13:14:37;35.45;;;20.67;;
36801;SDS011;22753;42.604;23.366;2024-03-02T13:17:02;35.25;;;20.80;;
36801;SDS011;22753;42.604;23.366;2024-03-02T13:19:30;33.63;;;20.08;;
36801;SDS011;22753;42.604;23.366;2024-03-02T13:21:56;31.13;;;20.08;;
36801;SDS011;22753;42.604;23.366;2024-03-02T13:24:22;33.70;;;20.80;;
36801;SDS011;22753;42.604;23.366;2024-03-02T13:26:50;33.55;;;21.17;;
36801;SDS011;22753;42.604;23.366;2024-03-02T13:29:20;35.78;;;20.05;;
36801;SDS011;22753;42.604;23.366;2024-03-02T13:31:46;33.10;;;19.77;;
36801;SDS011;22753;42.604;23.366;2024-03-02T13:34:11;34.80;;;21.50;;
36801;SDS011;22753;42.604;23.366;2024-03-02T13:36:37;35.53;;;21.63;;
36801;SDS011;22753;42.604;23.366;2024-03-02T13:39:03;35.95;;;20.83;;
36801;SDS011;22753;42.604;23.366;2024-03-02T13:41:30;34.95;;;22.20;;
36801;SDS011;22753;42.604;23.366;2024-03-02T13:43:59;34.30;;;21.05;;
36801;SDS011;22753;42.604;23.366;2024-03-02T13:46:26;34.40;;;21.10;;
36801;SDS011;22753;42.604;23.366;2024-03-02T13:48:51;32.25;;;20.20;;
36801;SDS011;22753;42.604;23.366;2024-03-02T13:51:17;34.85;;;20.65;;
36801;SDS011;22753;42.604;23.366;2024-03-02T13:53:43;34.92;;;22.05;;
36801;SDS011;22753;42.604;23.366;2024-03-02T13:56:08;35.92;;;20.88;;
36801;SDS011;22753;42.604;23.366;2024-03-02T13:58:34;31.50;;;20.25;;
36801;SDS011;22753;42.604;23.366;2024-03-02T14:00:59;30.50;;;19.13;;
36801;SDS011;22753;42.604;23.366;2024-03-02T14:03:26;29.00;;;17.92;;
36801;SDS011;22753;42.604;23.366;2024-03-02T14:05:52;28.35;;;17.38;;
36801;SDS011;22753;42.604;23.366;2024-03-02T14:08:18;28.98;;;17.48;;